createdAt,value
2018-04-09T00:00:54.494Z,13.20
2018-04-09T00:01:54.513Z,14.60
2018-04-09T00:02:54.534Z,14.00
2018-04-09T00:03:54.557Z,14.00
2018-04-09T00:04:54.569Z,13.00
2018-04-09T00:05:54.587Z,13.70
2018-04-09T00:06:54.605Z,13.90
2018-04-09T00:07:54.627Z,14.10
2018-04-09T00:08:54.644Z,14.20
2018-04-09T00:09:54.661Z,14.60
2018-04-09T00:10:54.693Z,14.40
2018-04-09T00:11:54.704Z,14.30
2018-04-09T00:12:54.716Z,14.10
2018-04-09T00:13:54.733Z,14.00
2018-04-09T00:14:54.755Z,13.90
2018-04-09T00:15:54.773Z,14.70
2018-04-09T00:16:54.787Z,13.60
2018-04-09T00:17:54.806Z,13.40
2018-04-09T00:18:54.825Z,14.00
2018-04-09T00:19:54.845Z,14.20
2018-04-09T00:20:54.866Z,14.60
2018-04-09T00:21:54.881Z,15.10
2018-04-09T00:22:54.904Z,14.50
2018-04-09T00:23:54.920Z,15.00
2018-04-09T00:24:54.938Z,14.60
2018-04-09T00:25:54.958Z,14.60
2018-04-09T00:26:54.972Z,15.40
2018-04-09T00:27:54.994Z,14.80
2018-04-09T00:28:55.007Z,15.30
2018-04-09T00:29:55.031Z,14.80
2018-04-09T00:30:55.054Z,15.10
2018-04-09T00:31:55.074Z,15.80
2018-04-09T00:32:55.085Z,14.50
2018-04-09T00:33:55.103Z,14.50
2018-04-09T00:34:55.123Z,14.80
2018-04-09T00:35:55.211Z,14.90
2018-04-09T00:36:55.172Z,14.80
2018-04-09T00:37:55.184Z,14.30
2018-04-09T00:38:55.200Z,14.90
2018-04-09T00:39:55.238Z,15.10
2018-04-09T00:40:55.229Z,14.20
2018-04-09T00:41:55.260Z,14.70
2018-04-09T00:42:55.276Z,15.30
2018-04-09T00:43:55.284Z,14.50
2018-04-09T00:44:55.302Z,14.70
2018-04-09T00:45:55.324Z,15.10
2018-04-09T00:46:55.339Z,15.60
2018-04-09T00:47:55.358Z,13.60
2018-04-09T00:48:55.382Z,14.80
2018-04-09T00:49:55.391Z,14.00
2018-04-09T00:50:55.410Z,15.10
2018-04-09T00:51:55.429Z,15.80
2018-04-09T00:52:55.459Z,16.10
2018-04-09T00:53:55.465Z,16.30
2018-04-09T00:54:55.482Z,16.20
2018-04-09T00:55:55.502Z,16.60
2018-04-09T00:56:55.519Z,16.70
2018-04-09T00:57:55.536Z,16.40
2018-04-09T00:58:55.553Z,16.30
2018-04-09T00:59:55.574Z,16.50
2018-04-09T01:00:55.589Z,16.50
2018-04-09T01:01:55.608Z,15.90
2018-04-09T01:02:55.628Z,16.10
2018-04-09T01:03:55.646Z,17.20
2018-04-09T01:04:55.664Z,17.80
2018-04-09T01:05:55.680Z,16.70
2018-04-09T01:06:55.708Z,15.70
2018-04-09T01:07:55.719Z,17.40
2018-04-09T01:08:55.737Z,16.60
2018-04-09T01:09:55.751Z,16.40
2018-04-09T01:10:55.773Z,16.20
2018-04-09T01:11:55.792Z,16.70
2018-04-09T01:12:56.042Z,16.50
2018-04-09T01:13:55.823Z,17.80
2018-04-09T01:14:55.847Z,17.40
2018-04-09T01:15:55.859Z,15.80
2018-04-09T01:16:55.877Z,16.00
2018-04-09T01:17:55.895Z,17.10
2018-04-09T01:18:55.952Z,16.70
2018-04-09T01:19:55.933Z,16.50
2018-04-09T01:20:55.951Z,17.10
2018-04-09T01:21:55.966Z,16.00
2018-04-09T01:22:56.006Z,16.60
2018-04-09T01:23:56.005Z,16.90
2018-04-09T01:24:56.021Z,16.10
2018-04-09T01:25:56.037Z,16.10
2018-04-09T01:26:56.055Z,16.80
2018-04-09T01:27:56.076Z,16.90
2018-04-09T01:28:56.092Z,16.30
2018-04-09T01:29:56.110Z,16.50
2018-04-09T01:30:56.128Z,18.30
2018-04-09T01:31:56.146Z,17.30
2018-04-09T01:32:56.165Z,16.70
2018-04-09T01:33:56.181Z,18.00
2018-04-09T01:34:56.201Z,17.60
2018-04-09T01:35:56.217Z,17.50
2018-04-09T01:36:56.232Z,18.00
2018-04-09T01:37:56.252Z,17.90
2018-04-09T01:38:56.270Z,18.10
2018-04-09T01:39:56.288Z,17.50
2018-04-09T01:40:56.305Z,17.30
2018-04-09T01:41:56.323Z,17.70
2018-04-09T01:42:56.340Z,17.20
2018-04-09T01:43:56.359Z,17.60
2018-04-09T01:44:56.382Z,17.80
2018-04-09T01:45:56.393Z,17.30
2018-04-09T01:46:56.412Z,18.20
2018-04-09T01:47:56.429Z,18.10
2018-04-09T01:48:56.446Z,17.60
2018-04-09T01:49:56.466Z,18.70
2018-04-09T01:50:56.480Z,18.30
2018-04-09T01:51:56.500Z,19.00
2018-04-09T01:52:56.514Z,18.50
2018-04-09T01:53:56.536Z,18.30
2018-04-09T01:54:56.557Z,18.20
2018-04-09T01:55:56.571Z,19.10
2018-04-09T01:56:56.586Z,18.90
2018-04-09T01:57:56.607Z,18.70
2018-04-09T01:58:56.621Z,18.50
2018-04-09T01:59:56.640Z,19.00
2018-04-09T02:00:56.657Z,18.40
2018-04-09T02:01:56.674Z,17.50
2018-04-09T02:02:56.693Z,18.40
2018-04-09T02:03:56.710Z,19.50
2018-04-09T02:04:56.727Z,19.40
2018-04-09T02:05:56.745Z,19.90
2018-04-09T02:06:56.763Z,18.70
2018-04-09T02:07:56.780Z,17.90
2018-04-09T02:08:56.797Z,18.90
2018-04-09T02:09:56.816Z,19.10
2018-04-09T02:10:56.832Z,18.50
2018-04-09T02:11:56.855Z,19.40
2018-04-09T02:12:56.875Z,18.80
2018-04-09T02:13:56.887Z,19.20
2018-04-09T02:14:56.903Z,18.60
2018-04-09T02:15:56.920Z,17.80
2018-04-09T02:16:56.942Z,17.50
2018-04-09T02:17:56.955Z,18.70
2018-04-09T02:18:56.974Z,17.70
2018-04-09T02:19:56.990Z,19.00
2018-04-09T02:20:57.006Z,19.00
2018-04-09T02:21:57.024Z,19.20
2018-04-09T02:22:57.042Z,18.60
2018-04-09T02:23:57.060Z,18.50
2018-04-09T02:24:57.084Z,18.80
2018-04-09T02:25:57.097Z,17.60
2018-04-09T02:26:57.112Z,18.50
2018-04-09T02:27:57.132Z,18.60
2018-04-09T02:28:57.146Z,18.10
2018-04-09T02:29:57.164Z,18.50
2018-04-09T02:30:57.182Z,18.30
2018-04-09T02:31:57.198Z,19.10
2018-04-09T02:32:57.214Z,19.00
2018-04-09T02:33:57.232Z,18.60
2018-04-09T02:34:57.255Z,19.10
2018-04-09T02:35:57.266Z,18.50
2018-04-09T02:36:57.287Z,17.50
2018-04-09T02:37:57.302Z,17.00
2018-04-09T02:38:57.323Z,18.00
2018-04-09T02:39:57.338Z,18.10
2018-04-09T02:40:57.382Z,18.30
2018-04-09T02:41:57.377Z,18.50
2018-04-09T02:42:57.532Z,18.90
2018-04-09T02:43:57.406Z,19.00
2018-04-09T02:44:57.424Z,18.50
2018-04-09T02:45:57.444Z,19.00
2018-04-09T02:46:57.461Z,18.60
2018-04-09T02:47:57.479Z,17.50
2018-04-09T02:48:57.494Z,18.00
2018-04-09T02:49:57.512Z,19.80
2018-04-09T02:50:57.526Z,18.50
2018-04-09T02:51:57.553Z,19.50
2018-04-09T02:52:57.565Z,19.50
2018-04-09T02:53:57.579Z,19.40
2018-04-09T02:54:57.606Z,18.90
2018-04-09T02:55:57.613Z,20.10
2018-04-09T02:56:57.633Z,18.80
2018-04-09T02:57:57.649Z,20.50
2018-04-09T02:58:57.667Z,18.70
2018-04-09T02:59:57.686Z,18.90
2018-04-09T03:00:57.699Z,18.80
2018-04-09T03:01:57.719Z,18.30
2018-04-09T03:02:57.736Z,18.50
2018-04-09T03:03:57.755Z,19.60
2018-04-09T03:04:57.769Z,18.60
2018-04-09T03:05:57.788Z,18.70
2018-04-09T03:06:57.809Z,18.60
2018-04-09T03:07:57.822Z,19.20
2018-04-09T03:08:57.898Z,19.80
2018-04-09T03:09:57.864Z,18.30
2018-04-09T03:10:57.873Z,19.50
2018-04-09T03:11:57.892Z,19.10
2018-04-09T03:12:57.907Z,18.30
2018-04-09T03:13:57.922Z,18.10
2018-04-09T03:14:57.941Z,18.70
2018-04-09T03:15:57.959Z,18.40
2018-04-09T03:16:57.978Z,18.10
2018-04-09T03:17:58.003Z,18.20
2018-04-09T03:18:58.010Z,20.40
2018-04-09T03:19:58.030Z,21.00
2018-04-09T03:20:58.045Z,18.90
2018-04-09T03:21:58.064Z,19.80
2018-04-09T03:22:58.078Z,19.50
2018-04-09T03:23:58.096Z,19.30
2018-04-09T03:24:58.109Z,18.20
2018-04-09T03:25:58.131Z,18.10
2018-04-09T03:26:58.146Z,19.00
2018-04-09T03:27:58.163Z,19.50
2018-04-09T03:28:58.180Z,19.00
2018-04-09T03:29:58.206Z,20.30
2018-04-09T03:30:58.217Z,19.30
2018-04-09T03:31:58.229Z,19.70
2018-04-09T03:32:58.249Z,19.20
2018-04-09T03:33:58.305Z,18.70
2018-04-09T03:34:58.282Z,19.70
2018-04-09T03:35:58.300Z,19.00
2018-04-09T03:36:58.316Z,20.00
2018-04-09T03:37:58.333Z,19.70
2018-04-09T03:38:58.355Z,20.80
2018-04-09T03:39:58.373Z,20.60
2018-04-09T03:40:58.385Z,20.60
2018-04-09T03:41:58.402Z,19.70
2018-04-09T03:42:58.421Z,20.10
2018-04-09T03:43:58.448Z,19.80
2018-04-09T03:44:58.451Z,20.40
2018-04-09T03:45:58.469Z,20.50
2018-04-09T03:46:58.488Z,20.80
2018-04-09T03:47:58.505Z,19.80
2018-04-09T03:48:58.521Z,19.10
2018-04-09T03:49:58.544Z,19.60
2018-04-09T03:50:58.558Z,19.40
2018-04-09T03:51:58.572Z,19.80
2018-04-09T03:52:58.592Z,19.70
2018-04-09T03:53:58.606Z,20.50
2018-04-09T03:54:58.626Z,20.70
2018-04-09T03:55:58.642Z,21.20
2018-04-09T03:56:58.661Z,20.40
2018-04-09T03:57:58.673Z,21.50
2018-04-09T03:58:58.692Z,20.60
2018-04-09T03:59:58.709Z,20.30
2018-04-09T04:00:58.729Z,20.70
2018-04-09T04:01:58.741Z,20.00
2018-04-09T04:02:58.759Z,19.50
2018-04-09T04:03:58.774Z,20.20
2018-04-09T04:04:58.792Z,20.60
2018-04-09T04:05:58.808Z,19.80
2018-04-09T04:06:58.827Z,20.00
2018-04-09T04:07:58.842Z,20.30
2018-04-09T04:08:58.862Z,20.20
2018-04-09T04:09:58.879Z,19.00
2018-04-09T04:10:58.892Z,19.40
2018-04-09T04:11:58.913Z,20.20
2018-04-09T04:12:58.928Z,20.10
2018-04-09T04:13:58.944Z,19.70
2018-04-09T04:14:58.961Z,19.50
2018-04-09T04:15:58.980Z,20.10
2018-04-09T04:16:58.997Z,20.60
2018-04-09T04:17:59.017Z,19.70
2018-04-09T04:18:59.029Z,20.90
2018-04-09T04:19:59.052Z,20.80
2018-04-09T04:20:59.063Z,19.40
2018-04-09T04:21:59.082Z,20.90
2018-04-09T04:22:59.109Z,19.40
2018-04-09T04:23:59.116Z,20.20
2018-04-09T04:24:59.135Z,19.90
2018-04-09T04:25:59.145Z,21.40
2018-04-09T04:26:59.163Z,21.50
2018-04-09T04:27:59.180Z,22.10
2018-04-09T04:28:59.196Z,20.40
2018-04-09T04:29:59.216Z,21.60
2018-04-09T04:30:59.231Z,22.50
2018-04-09T04:31:59.254Z,20.90
2018-04-09T04:32:59.267Z,20.60
2018-04-09T04:33:59.284Z,20.60
2018-04-09T04:34:59.301Z,20.50
2018-04-09T04:35:59.316Z,21.00
2018-04-09T04:36:59.331Z,19.70
2018-04-09T04:37:59.347Z,21.00
2018-04-09T04:38:59.374Z,20.30
2018-04-09T04:39:59.382Z,20.90
2018-04-09T04:40:59.397Z,22.20
2018-04-09T04:41:59.425Z,21.70
2018-04-09T04:42:59.433Z,21.30
2018-04-09T04:43:59.450Z,21.70
2018-04-09T04:44:59.501Z,21.10
2018-04-09T04:45:59.483Z,21.00
2018-04-09T04:46:59.506Z,20.20
2018-04-09T04:47:59.517Z,21.10
2018-04-09T04:48:59.530Z,20.40
2018-04-09T04:49:59.550Z,20.50
2018-04-09T04:50:59.567Z,20.30
2018-04-09T04:51:59.584Z,20.50
2018-04-09T04:52:59.601Z,20.80
2018-04-09T04:53:59.619Z,21.00
2018-04-09T04:54:59.634Z,20.50
2018-04-09T04:55:59.660Z,20.00
2018-04-09T04:56:59.669Z,19.30
2018-04-09T04:57:59.684Z,20.30
2018-04-09T04:58:59.701Z,20.80
2018-04-09T04:59:59.719Z,21.00
2018-04-09T05:00:59.734Z,21.30
2018-04-09T05:01:59.751Z,22.10
2018-04-09T05:02:59.768Z,21.60
2018-04-09T05:03:59.787Z,22.10
2018-04-09T05:04:59.804Z,21.50
2018-04-09T05:05:59.820Z,20.50
2018-04-09T05:06:59.840Z,20.80
2018-04-09T05:07:59.854Z,21.00
2018-04-09T05:08:59.889Z,21.50
2018-04-09T05:09:59.886Z,20.80
2018-04-09T05:10:59.904Z,20.00
2018-04-09T05:11:59.921Z,20.30
2018-04-09T05:12:59.940Z,21.60
2018-04-09T05:13:59.961Z,20.60
2018-04-09T05:14:59.977Z,20.30
2018-04-09T05:15:59.990Z,20.40
2018-04-09T05:17:00.006Z,20.90
2018-04-09T05:18:00.024Z,21.00
2018-04-09T05:19:00.041Z,23.20
2018-04-09T05:20:00.063Z,22.20
2018-04-09T05:21:00.075Z,21.20
2018-04-09T05:22:00.091Z,20.30
2018-04-09T05:23:00.113Z,20.40
2018-04-09T05:24:00.126Z,20.80
2018-04-09T05:25:00.148Z,20.20
2018-04-09T05:26:00.161Z,21.20
2018-04-09T05:27:00.180Z,20.90
2018-04-09T05:28:00.197Z,20.20
2018-04-09T05:29:00.213Z,20.40
2018-04-09T05:30:00.233Z,20.00
2018-04-09T05:31:00.249Z,21.20
2018-04-09T05:32:00.308Z,21.40
2018-04-09T05:33:00.297Z,21.20
2018-04-09T05:34:00.304Z,20.80
2018-04-09T05:35:00.324Z,21.00
2018-04-09T05:36:00.345Z,19.80
2018-04-09T05:37:00.358Z,20.80
2018-04-09T05:38:00.381Z,19.50
2018-04-09T05:39:00.398Z,20.70
2018-04-09T05:40:00.421Z,21.00
2018-04-09T05:41:00.434Z,19.50
2018-04-09T05:42:00.453Z,21.50
2018-04-09T05:43:00.473Z,21.50
2018-04-09T05:44:00.489Z,19.80
2018-04-09T05:45:00.508Z,20.40
2018-04-09T05:46:00.525Z,19.70
2018-04-09T05:47:00.567Z,20.40
2018-04-09T05:48:00.570Z,20.20
2018-04-09T05:49:00.586Z,19.40
2018-04-09T05:50:00.606Z,19.80
2018-04-09T05:51:00.627Z,20.50
2018-04-09T05:52:00.645Z,20.70
2018-04-09T05:53:00.676Z,19.90
2018-04-09T05:54:00.688Z,19.20
2018-04-09T05:55:00.701Z,20.90
2018-04-09T05:56:00.736Z,19.80
2018-04-09T05:57:00.744Z,18.90
2018-04-09T05:58:00.761Z,20.00
2018-04-09T05:59:00.789Z,20.00
2018-04-09T06:00:00.801Z,19.70
2018-04-09T06:01:00.827Z,20.80
2018-04-09T06:02:00.846Z,20.40
2018-04-09T06:03:00.863Z,20.80
2018-04-09T06:04:00.888Z,20.10
2018-04-09T06:05:00.932Z,21.30
2018-04-09T06:06:00.932Z,20.00
2018-04-09T06:07:00.951Z,21.10
2018-04-09T06:08:00.971Z,21.30
2018-04-09T06:09:00.992Z,20.30
2018-04-09T06:10:01.013Z,21.40
2018-04-09T06:11:01.035Z,22.10
2018-04-09T06:12:01.094Z,21.80
2018-04-09T06:13:01.079Z,21.50
2018-04-09T06:14:01.100Z,21.50
2018-04-09T06:15:01.121Z,21.40
2018-04-09T06:16:01.154Z,21.70
2018-04-09T06:17:01.165Z,19.90
2018-04-09T06:18:01.186Z,21.50
2018-04-09T06:19:01.209Z,20.70
2018-04-09T06:20:01.231Z,20.50
2018-04-09T06:21:01.253Z,21.10
2018-04-09T06:22:01.276Z,20.30
2018-04-09T06:23:01.299Z,20.50
2018-04-09T06:24:01.324Z,19.80
2018-04-09T06:25:01.346Z,21.00
2018-04-09T06:26:01.369Z,21.80
2018-04-09T06:27:01.391Z,20.50
2018-04-09T06:28:01.418Z,21.20
2018-04-09T06:29:01.435Z,22.20
2018-04-09T06:30:01.461Z,20.90
2018-04-09T06:31:01.485Z,21.10
2018-04-09T06:32:01.508Z,21.00
2018-04-09T06:33:01.531Z,20.70
2018-04-09T06:34:01.555Z,22.10
2018-04-09T06:35:01.582Z,22.80
2018-04-09T06:36:01.601Z,22.40
2018-04-09T06:37:01.624Z,21.50
2018-04-09T06:38:01.651Z,22.60
2018-04-09T06:39:01.675Z,22.80
2018-04-09T06:40:01.702Z,22.30
2018-04-09T06:41:01.720Z,21.90
2018-04-09T06:42:01.748Z,21.50
2018-04-09T06:43:01.769Z,22.30
2018-04-09T06:44:01.801Z,22.30
2018-04-09T06:45:01.816Z,22.60
2018-04-09T06:46:01.841Z,22.60
2018-04-09T06:47:01.867Z,22.30
2018-04-09T06:48:01.889Z,23.80
2018-04-09T06:49:01.914Z,24.10
2018-04-09T06:50:01.940Z,22.20
2018-04-09T06:51:01.964Z,22.50
2018-04-09T06:52:01.987Z,23.50
2018-04-09T06:53:02.011Z,22.40
2018-04-09T06:54:02.035Z,22.50
2018-04-09T06:55:02.061Z,22.40
2018-04-09T06:56:02.084Z,22.00
2018-04-09T06:57:02.109Z,22.80
2018-04-09T06:58:02.137Z,21.70
2018-04-09T06:59:02.163Z,21.60
2018-04-09T07:00:02.183Z,22.10
2018-04-09T07:01:02.209Z,23.00
2018-04-09T07:02:02.233Z,21.60
2018-04-09T07:03:02.258Z,21.70
2018-04-09T07:04:02.285Z,22.40
2018-04-09T07:05:02.308Z,23.00
2018-04-09T07:06:02.337Z,22.60
2018-04-09T07:07:02.358Z,22.00
2018-04-09T07:08:02.382Z,22.60
2018-04-09T07:09:02.411Z,22.40
2018-04-09T07:10:02.433Z,21.80
2018-04-09T07:11:02.458Z,22.50
2018-04-09T07:12:02.485Z,22.40
2018-04-09T07:13:02.512Z,22.90
2018-04-09T07:14:02.537Z,22.00
2018-04-09T07:15:02.561Z,22.30
2018-04-09T07:16:02.585Z,22.50
2018-04-09T07:17:02.611Z,23.40
2018-04-09T07:18:02.639Z,22.70
2018-04-09T07:19:02.661Z,23.10
2018-04-09T07:20:02.692Z,22.40
2018-04-09T07:21:02.714Z,21.80
2018-04-09T07:22:02.741Z,21.80
2018-04-09T07:23:02.773Z,21.90
2018-04-09T07:24:02.792Z,22.60
2018-04-09T07:25:02.823Z,22.50
2018-04-09T07:26:02.840Z,22.40
2018-04-09T07:27:02.874Z,21.60
2018-04-09T07:28:02.897Z,21.70
2018-04-09T07:29:02.920Z,22.90
2018-04-09T07:30:02.946Z,21.90
2018-04-09T07:31:02.983Z,22.60
2018-04-09T07:32:03.000Z,21.70
2018-04-09T07:33:03.038Z,21.90
2018-04-09T07:34:03.054Z,22.30
2018-04-09T07:35:03.076Z,21.90
2018-04-09T07:36:03.105Z,22.20
2018-04-09T07:37:03.134Z,21.70
2018-04-09T07:38:03.157Z,21.80
2018-04-09T07:39:03.184Z,22.30
2018-04-09T07:40:03.208Z,22.70
2018-04-09T07:41:03.232Z,22.70
2018-04-09T07:42:03.259Z,22.60
2018-04-09T07:43:03.297Z,23.10
2018-04-09T07:44:03.312Z,22.40
2018-04-09T07:45:03.349Z,22.20
2018-04-09T07:46:03.364Z,22.20
2018-04-09T07:47:03.392Z,22.40
2018-04-09T07:48:03.420Z,21.80
2018-04-09T07:49:03.442Z,22.30
2018-04-09T07:50:03.469Z,21.90
2018-04-09T07:51:03.505Z,22.60
2018-04-09T07:52:03.522Z,22.50
2018-04-09T07:53:03.549Z,21.80
2018-04-09T07:54:03.576Z,23.70
2018-04-09T07:55:03.600Z,21.50
2018-04-09T07:56:03.781Z,22.50
2018-04-09T07:57:03.655Z,22.90
2018-04-09T07:58:03.682Z,22.30
2018-04-09T07:59:03.710Z,23.70
2018-04-09T08:00:03.734Z,22.90
2018-04-09T08:01:03.763Z,23.10
2018-04-09T08:02:03.785Z,23.30
2018-04-09T08:03:03.814Z,22.20
2018-04-09T08:04:03.842Z,22.50
2018-04-09T08:05:03.866Z,23.70
2018-04-09T08:06:03.900Z,23.10
2018-04-09T08:07:03.923Z,22.90
2018-04-09T08:08:03.947Z,23.30
2018-04-09T08:09:03.973Z,23.50
2018-04-09T08:10:04.002Z,22.80
2018-04-09T08:11:04.027Z,23.20
2018-04-09T08:12:04.054Z,24.10
2018-04-09T08:13:04.088Z,24.50
2018-04-09T08:14:04.107Z,25.00
2018-04-09T08:15:04.144Z,25.10
2018-04-09T08:16:04.163Z,25.20
2018-04-09T08:17:04.188Z,24.80
2018-04-09T08:18:04.215Z,25.00
2018-04-09T08:19:04.241Z,25.30
2018-04-09T08:20:04.269Z,25.80
2018-04-09T08:21:04.297Z,25.90
2018-04-09T08:22:04.319Z,25.50
2018-04-09T08:23:04.360Z,25.90
2018-04-09T08:24:04.372Z,24.10
2018-04-09T08:25:04.454Z,24.60
2018-04-09T08:26:04.419Z,24.70
2018-04-09T08:27:04.445Z,25.20
2018-04-09T08:28:04.475Z,24.70
2018-04-09T08:29:04.497Z,23.70
2018-04-09T08:30:04.520Z,24.60
2018-04-09T08:31:04.547Z,25.30
2018-04-09T08:32:04.569Z,25.30
2018-04-09T08:33:04.593Z,26.60
2018-04-09T08:34:04.652Z,25.80
2018-04-09T08:35:04.642Z,27.50
2018-04-09T08:36:04.664Z,25.80
2018-04-09T08:37:04.692Z,26.00
2018-04-09T08:38:04.715Z,27.90
2018-04-09T08:39:04.743Z,27.50
2018-04-09T08:40:04.767Z,26.80
2018-04-09T08:41:04.787Z,28.10
2018-04-09T08:42:04.813Z,28.40
2018-04-09T08:43:04.838Z,28.00
2018-04-09T08:44:04.861Z,28.10
2018-04-09T08:45:04.881Z,27.10
2018-04-09T08:46:04.908Z,28.00
2018-04-09T08:47:04.929Z,28.00
2018-04-09T08:48:04.955Z,28.80
2018-04-09T08:49:04.976Z,28.00
2018-04-09T08:50:05.004Z,28.60
2018-04-09T08:51:05.025Z,26.40
2018-04-09T08:52:05.048Z,27.80
2018-04-09T08:53:05.071Z,28.60
2018-04-09T08:54:05.094Z,29.50
2018-04-09T08:55:05.120Z,27.70
2018-04-09T08:56:05.147Z,27.90
2018-04-09T08:57:05.163Z,28.20
2018-04-09T08:58:05.189Z,26.90
2018-04-09T08:59:05.209Z,27.30
2018-04-09T09:00:05.232Z,28.30
2018-04-09T09:01:05.269Z,29.20
2018-04-09T09:02:05.293Z,27.90
2018-04-09T09:03:05.306Z,28.60
2018-04-09T09:04:05.329Z,29.80
2018-04-09T09:05:05.351Z,28.90
2018-04-09T09:06:05.369Z,28.40
2018-04-09T09:07:05.393Z,28.50
2018-04-09T09:08:05.418Z,28.00
2018-04-09T09:09:05.440Z,29.40
2018-04-09T09:10:05.470Z,28.80
2018-04-09T09:11:05.485Z,28.80
2018-04-09T09:12:05.510Z,27.60
2018-04-09T09:13:05.531Z,28.50
2018-04-09T09:14:05.554Z,28.70
2018-04-09T09:15:05.579Z,29.90
2018-04-09T09:16:05.607Z,28.50
2018-04-09T09:17:05.624Z,28.50
2018-04-09T09:18:05.646Z,29.00
2018-04-09T09:19:05.670Z,29.20
2018-04-09T09:20:05.694Z,27.80
2018-04-09T09:21:05.716Z,28.20
2018-04-09T09:22:05.739Z,28.20
2018-04-09T09:23:05.762Z,28.20
2018-04-09T09:24:05.788Z,28.60
2018-04-09T09:25:05.805Z,29.20
2018-04-09T09:26:05.830Z,28.70
2018-04-09T09:27:05.853Z,27.90
2018-04-09T09:28:05.877Z,27.80
2018-04-09T09:29:05.908Z,27.50
2018-04-09T09:30:05.922Z,27.70
2018-04-09T09:31:05.945Z,28.60
2018-04-09T09:32:05.971Z,27.60
2018-04-09T09:33:05.992Z,27.20
2018-04-09T09:34:06.016Z,29.10
2018-04-09T09:35:06.038Z,27.20
2018-04-09T09:36:06.069Z,29.30
2018-04-09T09:37:06.084Z,26.90
2018-04-09T09:38:06.113Z,27.00
2018-04-09T09:39:06.132Z,27.10
2018-04-09T09:40:06.158Z,27.40
2018-04-09T09:41:06.182Z,25.80
2018-04-09T09:42:06.203Z,26.60
2018-04-09T09:43:06.232Z,25.80
2018-04-09T09:44:06.253Z,25.30
2018-04-09T09:45:06.275Z,25.70
2018-04-09T09:46:06.297Z,26.90
2018-04-09T09:47:06.320Z,26.40
2018-04-09T09:48:06.345Z,25.80
2018-04-09T09:49:06.371Z,25.10
2018-04-09T09:50:06.395Z,24.50
2018-04-09T09:51:06.423Z,25.20
2018-04-09T09:52:06.438Z,25.10
2018-04-09T09:53:06.462Z,25.60
2018-04-09T09:54:06.489Z,24.90
2018-04-09T09:55:06.509Z,23.90
2018-04-09T09:56:06.535Z,24.80
2018-04-09T09:57:06.556Z,24.00
2018-04-09T09:58:06.578Z,23.60
2018-04-09T09:59:06.603Z,23.70
2018-04-09T10:00:06.759Z,23.80
2018-04-09T10:01:06.653Z,23.80
2018-04-09T10:02:06.691Z,23.50
2018-04-09T10:03:06.699Z,23.50
2018-04-09T10:04:06.719Z,24.20
2018-04-09T10:05:06.746Z,24.50
2018-04-09T10:06:06.770Z,23.80
2018-04-09T10:07:06.795Z,24.40
2018-04-09T10:08:06.818Z,23.10
2018-04-09T10:09:06.836Z,22.30
2018-04-09T10:10:06.862Z,24.30
2018-04-09T10:11:06.889Z,24.70
2018-04-09T10:12:06.910Z,23.70
2018-04-09T10:13:06.931Z,24.50
2018-04-09T10:14:06.962Z,24.00
2018-04-09T10:15:06.979Z,24.90
2018-04-09T10:16:07.019Z,25.00
2018-04-09T10:17:07.029Z,24.90
2018-04-09T10:18:07.050Z,23.90
2018-04-09T10:19:07.079Z,24.00
2018-04-09T10:20:07.103Z,23.80
2018-04-09T10:21:07.119Z,24.00
2018-04-09T10:22:07.152Z,23.20
2018-04-09T10:23:07.167Z,24.80
2018-04-09T10:24:07.189Z,22.80
2018-04-09T10:25:07.217Z,23.00
2018-04-09T10:26:07.234Z,23.80
2018-04-09T10:27:07.258Z,23.30
2018-04-09T10:28:07.286Z,23.30
2018-04-09T10:29:07.307Z,22.80
2018-04-09T10:30:07.329Z,23.90
2018-04-09T10:31:07.358Z,22.30
2018-04-09T10:32:07.378Z,22.40
2018-04-09T10:33:07.446Z,22.40
2018-04-09T10:34:07.428Z,22.30
2018-04-09T10:35:07.447Z,23.60
2018-04-09T10:36:07.470Z,23.20
2018-04-09T10:37:07.500Z,22.20
2018-04-09T10:38:07.525Z,22.40
2018-04-09T10:39:07.542Z,22.50
2018-04-09T10:40:07.566Z,22.00
2018-04-09T10:41:07.596Z,22.70
2018-04-09T10:42:07.612Z,22.40
2018-04-09T10:43:07.638Z,23.50
2018-04-09T10:44:07.665Z,22.60
2018-04-09T10:45:07.684Z,22.70
2018-04-09T10:46:07.710Z,22.60
2018-04-09T10:47:07.735Z,21.90
2018-04-09T10:48:07.758Z,22.60
2018-04-09T10:49:07.780Z,22.30
2018-04-09T10:50:07.803Z,22.50
2018-04-09T10:51:07.828Z,22.20
2018-04-09T10:52:07.851Z,22.10
2018-04-09T10:53:07.876Z,22.10
2018-04-09T10:54:07.898Z,22.10
2018-04-09T10:55:07.926Z,22.50
2018-04-09T10:56:07.947Z,22.40
2018-04-09T10:57:07.969Z,21.60
2018-04-09T10:58:08.000Z,22.00
2018-04-09T10:59:08.016Z,21.50
2018-04-09T11:00:08.042Z,21.30
2018-04-09T11:01:08.061Z,23.00
2018-04-09T11:02:08.089Z,21.50
2018-04-09T11:03:08.120Z,21.40
2018-04-09T11:04:08.202Z,22.00
2018-04-09T11:05:08.161Z,22.00
2018-04-09T11:06:08.182Z,22.20
2018-04-09T11:07:08.208Z,22.10
2018-04-09T11:08:08.231Z,20.20
2018-04-09T11:09:08.254Z,19.50
2018-04-09T11:10:08.277Z,19.50
2018-04-09T11:11:08.300Z,19.40
2018-04-09T11:12:08.326Z,19.90
2018-04-09T11:13:08.351Z,19.40
2018-04-09T11:14:08.372Z,19.50
2018-04-09T11:15:08.395Z,18.80
2018-04-09T11:16:08.423Z,18.40
2018-04-09T11:17:08.446Z,17.10
2018-04-09T11:18:08.469Z,17.50
2018-04-09T11:19:08.495Z,18.30
2018-04-09T11:20:08.526Z,18.30
2018-04-09T11:21:08.551Z,18.30
2018-04-09T11:22:08.566Z,17.70
2018-04-09T11:23:08.594Z,17.80
2018-04-09T11:24:08.618Z,17.90
2018-04-09T11:25:08.638Z,17.40
2018-04-09T11:26:08.665Z,17.80
2018-04-09T11:27:08.688Z,17.80
2018-04-09T11:28:08.712Z,17.70
2018-04-09T11:29:08.735Z,17.40
2018-04-09T11:30:08.762Z,17.20
2018-04-09T11:31:08.784Z,17.00
2018-04-09T11:32:08.814Z,17.70
2018-04-09T11:33:08.833Z,16.70
2018-04-09T11:34:08.860Z,16.50
2018-04-09T11:35:08.883Z,17.00
2018-04-09T11:36:08.912Z,16.90
2018-04-09T11:37:08.950Z,17.00
2018-04-09T11:38:08.959Z,16.10
2018-04-09T11:39:08.985Z,16.60
2018-04-09T11:40:09.008Z,16.70
2018-04-09T11:41:09.034Z,15.80
2018-04-09T11:42:09.053Z,15.40
2018-04-09T11:43:09.098Z,15.10
2018-04-09T11:44:09.108Z,16.30
2018-04-09T11:45:09.129Z,16.60
2018-04-09T11:46:09.154Z,16.00
2018-04-09T11:47:09.180Z,15.60
2018-04-09T11:48:09.203Z,16.10
2018-04-09T11:49:09.224Z,16.10
2018-04-09T11:50:09.256Z,16.20
2018-04-09T11:51:09.271Z,17.10
2018-04-09T11:52:09.295Z,15.80
2018-04-09T11:53:09.320Z,16.80
2018-04-09T11:54:09.348Z,16.70
2018-04-09T11:55:09.368Z,16.40
2018-04-09T11:56:09.396Z,16.60
2018-04-09T11:57:09.412Z,15.80
2018-04-09T11:58:09.452Z,16.20
2018-04-09T11:59:09.462Z,15.40
2018-04-09T12:00:09.486Z,17.00
2018-04-09T12:01:09.508Z,15.60
2018-04-09T12:02:09.555Z,16.10
2018-04-09T12:03:09.564Z,16.40
2018-04-09T12:04:09.578Z,17.20
2018-04-09T12:05:09.603Z,16.50
2018-04-09T12:06:09.627Z,16.00
2018-04-09T12:07:09.653Z,16.20
2018-04-09T12:08:09.680Z,16.00
2018-04-09T12:09:09.702Z,15.70
2018-04-09T12:10:09.721Z,16.10
2018-04-09T12:11:09.747Z,15.70
2018-04-09T12:12:09.774Z,14.40
2018-04-09T12:13:09.803Z,15.60
2018-04-09T12:14:09.841Z,15.20
2018-04-09T12:15:09.845Z,14.90
2018-04-09T12:16:09.870Z,15.60
2018-04-09T12:17:09.891Z,16.10
2018-04-09T12:18:09.916Z,17.10
2018-04-09T12:19:09.944Z,16.30
2018-04-09T12:20:09.968Z,16.80
2018-04-09T12:21:09.991Z,16.20
2018-04-09T12:22:10.014Z,17.00
2018-04-09T12:23:10.039Z,16.90
2018-04-09T12:24:10.066Z,16.50
2018-04-09T12:25:10.087Z,15.30
2018-04-09T12:26:10.131Z,16.20
2018-04-09T12:27:10.136Z,16.50
2018-04-09T12:28:10.163Z,16.00
2018-04-09T12:29:10.184Z,16.80
2018-04-09T12:30:10.210Z,16.70
2018-04-09T12:31:10.231Z,16.00
2018-04-09T12:32:10.256Z,16.20
2018-04-09T12:33:10.282Z,16.50
2018-04-09T12:34:10.321Z,17.50
2018-04-09T12:35:10.331Z,16.80
2018-04-09T12:36:10.353Z,16.30
2018-04-09T12:37:10.378Z,16.20
2018-04-09T12:38:10.407Z,15.60
2018-04-09T12:39:10.429Z,16.30
2018-04-09T12:40:10.447Z,15.80
2018-04-09T12:41:10.474Z,14.80
2018-04-09T12:42:10.497Z,16.20
2018-04-09T12:43:10.521Z,15.90
2018-04-09T12:44:10.547Z,16.60
2018-04-09T12:45:10.569Z,16.40
2018-04-09T12:46:10.589Z,16.00
2018-04-09T12:47:10.616Z,17.30
2018-04-09T12:48:10.639Z,16.70
2018-04-09T12:49:10.670Z,16.80
2018-04-09T12:50:10.688Z,16.20
2018-04-09T12:51:10.711Z,14.40
2018-04-09T12:52:10.733Z,14.80
2018-04-09T12:53:10.762Z,14.30